Current | Forecast
Updated: 8:00 PM +07 on February 20, 2018
Observed at Barnaul, Russia
Temperature 16°F
Windchill 9°F
Humidity 68%
Dew Point 7°F
Wind South at 4 mph
Pressure 30.51 in (Steady)
Conditions Clear
Visibility -
UV N/A
Clouds
Yesterday's Maximum 9°F
Yesterday's Minimum -6°F approx.
Yesterday's Heating Degree Days 64 approx.
Sunrise7:34 AM +06
Sunset5:49 PM +06
Moon Rise9:34 AM +06
Moon Set10:52 PM +06
Moon PhaseMoon Phase
Waxing Crescent
Raw METARMETAR UNBB 201300Z 19002MPS CAVOK M09/M14 Q1033 R24/410358 NOSIG RMK QFE752


Monday
. High: 59° F.
Tuesday
. High: 66° F.
Wednesday
. High: 68° F.
Thursday
. High: 69° F.
Friday
. High: 75° F.
Saturday
. High: 78° F.
Sunday
. High: 78° F.
Monday
. High: 84° F.

Units: English | Metric

Find the Weather for any City, State or Zipcode, or Country:

U.S. State List | Severe Weather | Tropical Storms | Ski Conditions
United States | Canada | Central America | South America | Asia | Europe | Australia | Africa | Islands

Weather Underground

© Copyright 2018
The Weather Company, LLC